sensor_id;sensor_type;location;lat;lon;timestamp;temperature;humidity
9939;DHT22;5008;50.656;7.188;2024-03-08T05:00:14;4.40;99.90
9939;DHT22;5008;50.656;7.188;2024-03-08T05:02:42;4.20;99.90
9939;DHT22;5008;50.656;7.188;2024-03-08T05:05:09;4.20;99.90
9939;DHT22;5008;50.656;7.188;2024-03-08T05:07:38;4.20;99.90
9939;DHT22;5008;50.656;7.188;2024-03-08T05:10:06;4.30;99.90
9939;DHT22;5008;50.656;7.188;2024-03-08T05:12:33;4.30;99.90
9939;DHT22;5008;50.656;7.188;2024-03-08T05:15:00;4.30;99.90
9939;DHT22;5008;50.656;7.188;2024-03-08T05:17:28;4.30;99.90
9939;DHT22;5008;50.656;7.188;2024-03-08T05:19:55;4.10;99.90
9939;DHT22;5008;50.656;7.188;2024-03-08T05:22:22;3.90;99.90
9939;DHT22;5008;50.656;7.188;2024-03-08T05:24:49;3.90;99.90
9939;DHT22;5008;50.656;7.188;2024-03-08T05:27:16;3.70;99.90
9939;DHT22;5008;50.656;7.188;2024-03-08T05:29:42;3.70;99.90
9939;DHT22;5008;50.656;7.188;2024-03-08T05:32:09;3.50;99.90
9939;DHT22;5008;50.656;7.188;2024-03-08T05:34:39;3.50;99.90
9939;DHT22;5008;50.656;7.188;2024-03-08T05:37:05;3.30;99.90
9939;DHT22;5008;50.656;7.188;2024-03-08T05:39:33;3.20;99.90
9939;DHT22;5008;50.656;7.188;2024-03-08T05:41:59;3.10;99.90
9939;DHT22;5008;50.656;7.188;2024-03-08T05:44:26;3.10;99.90
9939;DHT22;5008;50.656;7.188;2024-03-08T05:46:54;3.20;99.90
9939;DHT22;5008;50.656;7.188;2024-03-08T05:49:21;3.10;99.90
9939;DHT22;5008;50.656;7.188;2024-03-08T05:51:49;3.10;99.90
9939;DHT22;5008;50.656;7.188;2024-03-08T05:54:17;3.20;99.90
9939;DHT22;5008;50.656;7.188;2024-03-08T05:56:43;3.30;99.90
9939;DHT22;5008;50.656;7.188;2024-03-08T05:59:10;3.30;99.90
9939;DHT22;5008;50.656;7.188;2024-03-08T06:01:37;3.20;99.90
9939;DHT22;5008;50.656;7.188;2024-03-08T06:04:06;3.20;99.90
9939;DHT22;5008;50.656;7.188;2024-03-08T06:06:33;3.10;99.90
9939;DHT22;5008;50.656;7.188;2024-03-08T06:09:01;3.00;99.90
9939;DHT22;5008;50.656;7.188;2024-03-08T06:11:34;2.90;99.90
9939;DHT22;5008;50.656;7.188;2024-03-08T06:14:03;3.00;99.90
9939;DHT22;5008;50.656;7.188;2024-03-08T06:16:29;3.00;99.90
9939;DHT22;5008;50.656;7.188;2024-03-08T06:18:56;2.80;99.90
9939;DHT22;5008;50.656;7.188;2024-03-08T06:21:23;2.80;99.90
9939;DHT22;5008;50.656;7.188;2024-03-08T06:23:52;2.80;99.90
9939;DHT22;5008;50.656;7.188;2024-03-08T06:26:21;2.90;99.90
9939;DHT22;5008;50.656;7.188;2024-03-08T06:28:48;2.90;99.90
9939;DHT22;5008;50.656;7.188;2024-03-08T06:31:16;2.90;99.90
9939;DHT22;5008;50.656;7.188;2024-03-08T06:33:43;3.00;99.90
9939;DHT22;5008;50.656;7.188;2024-03-08T06:36:10;3.00;99.90
9939;DHT22;5008;50.656;7.188;2024-03-08T06:38:37;3.00;99.90
9939;DHT22;5008;50.656;7.188;2024-03-08T06:41:07;3.00;99.90
9939;DHT22;5008;50.656;7.188;2024-03-08T06:43:35;3.00;99.90
9939;DHT22;5008;50.656;7.188;2024-03-08T06:46:03;3.10;99.90
9939;DHT22;5008;50.656;7.188;2024-03-08T06:48:29;3.00;99.90
9939;DHT22;5008;50.656;7.188;2024-03-08T06:50:58;3.10;99.90
9939;DHT22;5008;50.656;7.188;2024-03-08T06:53:25;3.10;99.90
9939;DHT22;5008;50.656;7.188;2024-03-08T06:55:51;3.10;99.90
9939;DHT22;5008;50.656;7.188;2024-03-08T06:58:19;3.20;99.90
9939;DHT22;5008;50.656;7.188;2024-03-08T07:00:47;3.20;99.90
9939;DHT22;5008;50.656;7.188;2024-03-08T07:03:17;3.30;99.90
9939;DHT22;5008;50.656;7.188;2024-03-08T07:05:44;3.20;99.90
9939;DHT22;5008;50.656;7.188;2024-03-08T07:08:11;3.30;99.90
9939;DHT22;5008;50.656;7.188;2024-03-08T07:10:39;3.30;99.90
9939;DHT22;5008;50.656;7.188;2024-03-08T07:13:07;3.60;99.90
9939;DHT22;5008;50.656;7.188;2024-03-08T07:15:34;3.70;99.90
9939;DHT22;5008;50.656;7.188;2024-03-08T07:18:03;3.80;99.90
9939;DHT22;5008;50.656;7.188;2024-03-08T07:20:30;3.90;99.90
9939;DHT22;5008;50.656;7.188;2024-03-08T07:22:57;4.00;99.90
9939;DHT22;5008;50.656;7.188;2024-03-08T07:25:23;4.10;99.90
9939;DHT22;5008;50.656;7.188;2024-03-08T07:27:55;4.40;99.90
9939;DHT22;5008;50.656;7.188;2024-03-08T07:30:23;4.50;99.90
9939;DHT22;5008;50.656;7.188;2024-03-08T07:33:09;4.60;99.90
9939;DHT22;5008;50.656;7.188;2024-03-08T07:35:37;4.90;99.90
9939;DHT22;5008;50.656;7.188;2024-03-08T07:38:04;5.40;99.90
9939;DHT22;5008;50.656;7.188;2024-03-08T07:40:31;5.70;99.90
9939;DHT22;5008;50.656;7.188;2024-03-08T07:42:58;6.00;99.90
9939;DHT22;5008;50.656;7.188;2024-03-08T07:45:25;6.20;99.90
9939;DHT22;5008;50.656;7.188;2024-03-08T07:47:52;6.20;99.90
9939;DHT22;5008;50.656;7.188;2024-03-08T07:50:20;6.30;99.90
9939;DHT22;5008;50.656;7.188;2024-03-08T07:52:48;6.40;99.90
9939;DHT22;5008;50.656;7.188;2024-03-08T07:55:15;6.70;99.90
9939;DHT22;5008;50.656;7.188;2024-03-08T07:57:42;6.90;99.90
9939;DHT22;5008;50.656;7.188;2024-03-08T08:00:09;7.00;99.90
9939;DHT22;5008;50.656;7.188;2024-03-08T08:02:41;7.00;99.90
9939;DHT22;5008;50.656;7.188;2024-03-08T08:05:08;7.30;99.90
9939;DHT22;5008;50.656;7.188;2024-03-08T08:07:37;7.40;99.90
9939;DHT22;5008;50.656;7.188;2024-03-08T08:10:04;7.50;99.90
9939;DHT22;5008;50.656;7.188;2024-03-08T08:12:32;7.50;99.90
9939;DHT22;5008;50.656;7.188;2024-03-08T08:14:59;7.50;99.90
9939;DHT22;5008;50.656;7.188;2024-03-08T08:17:26;7.60;99.90
9939;DHT22;5008;50.656;7.188;2024-03-08T08:19:53;7.70;99.90
9939;DHT22;5008;50.656;7.188;2024-03-08T08:22:21;7.70;99.90
9939;DHT22;5008;50.656;7.188;2024-03-08T08:24:49;7.70;99.90
9939;DHT22;5008;50.656;7.188;2024-03-08T08:27:17;7.80;99.90
9939;DHT22;5008;50.656;7.188;2024-03-08T08:29:44;7.90;99.90
9939;DHT22;5008;50.656;7.188;2024-03-08T08:32:11;7.90;99.90
9939;DHT22;5008;50.656;7.188;2024-03-08T08:34:38;7.80;99.90
9939;DHT22;5008;50.656;7.188;2024-03-08T08:37:05;7.80;99.90
9939;DHT22;5008;50.656;7.188;2024-03-08T08:39:32;7.70;99.90
9939;DHT22;5008;50.656;7.188;2024-03-08T08:42:00;7.80;99.90
9939;DHT22;5008;50.656;7.188;2024-03-08T08:44:28;7.90;99.90
9939;DHT22;5008;50.656;7.188;2024-03-08T08:46:57;8.10;99.90
9939;DHT22;5008;50.656;7.188;2024-03-08T08:49:24;8.00;99.90
9939;DHT22;5008;50.656;7.188;2024-03-08T08:51:52;8.50;99.90
9939;DHT22;5008;50.656;7.188;2024-03-08T08:54:19;8.60;99.90
9939;DHT22;5008;50.656;7.188;2024-03-08T08:56:46;9.00;99.90
9939;DHT22;5008;50.656;7.188;2024-03-08T08:59:14;9.00;99.90
9939;DHT22;5008;50.656;7.188;2024-03-08T09:01:42;8.90;99.90
9939;DHT22;5008;50.656;7.188;2024-03-08T09:04:12;8.60;99.90
9939;DHT22;5008;50.656;7.188;2024-03-08T09:06:39;8.70;99.90
9939;DHT22;5008;50.656;7.188;2024-03-08T09:09:07;8.70;99.90
9939;DHT22;5008;50.656;7.188;2024-03-08T09:11:36;8.70;99.90
9939;DHT22;5008;50.656;7.188;2024-03-08T09:14:07;8.80;99.90
9939;DHT22;5008;50.656;7.188;2024-03-08T09:16:35;8.80;99.90
9939;DHT22;5008;50.656;7.188;2024-03-08T09:19:02;8.90;99.90
9939;DHT22;5008;50.656;7.188;2024-03-08T09:21:29;9.00;99.90
9939;DHT22;5008;50.656;7.188;2024-03-08T09:23:57;9.20;99.90
9939;DHT22;5008;50.656;7.188;2024-03-08T09:26:24;9.20;99.90
9939;DHT22;5008;50.656;7.188;2024-03-08T09:28:50;9.30;99.90
9939;DHT22;5008;50.656;7.188;2024-03-08T09:31:17;9.10;99.90
9939;DHT22;5008;50.656;7.188;2024-03-08T09:33:46;9.20;99.90
9939;DHT22;5008;50.656;7.188;2024-03-08T09:36:13;9.20;99.90
9939;DHT22;5008;50.656;7.188;2024-03-08T09:38:40;9.30;99.90
9939;DHT22;5008;50.656;7.188;2024-03-08T09:41:07;9.40;99.90
9939;DHT22;5008;50.656;7.188;2024-03-08T09:43:35;9.50;99.90
9939;DHT22;5008;50.656;7.188;2024-03-08T09:46:04;9.60;99.90
9939;DHT22;5008;50.656;7.188;2024-03-08T09:48:31;9.70;99.90
9939;DHT22;5008;50.656;7.188;2024-03-08T09:50:59;9.70;99.90
9939;DHT22;5008;50.656;7.188;2024-03-08T09:53:26;9.80;99.90
9939;DHT22;5008;50.656;7.188;2024-03-08T09:55:53;10.10;99.90
9939;DHT22;5008;50.656;7.188;2024-03-08T09:58:20;10.00;99.90
9939;DHT22;5008;50.656;7.188;2024-03-08T10:01:20;10.10;99.90
9939;DHT22;5008;50.656;7.188;2024-03-08T10:03:47;10.30;99.90
9939;DHT22;5008;50.656;7.188;2024-03-08T10:06:16;10.10;99.90
9939;DHT22;5008;50.656;7.188;2024-03-08T10:08:44;10.30;99.90
9939;DHT22;5008;50.656;7.188;2024-03-08T10:11:10;10.60;99.90
9939;DHT22;5008;50.656;7.188;2024-03-08T10:13:38;10.90;99.90
9939;DHT22;5008;50.656;7.188;2024-03-08T10:16:06;11.10;99.90
9939;DHT22;5008;50.656;7.188;2024-03-08T10:18:33;11.00;99.90
9939;DHT22;5008;50.656;7.188;2024-03-08T10:21:03;10.80;99.90
9939;DHT22;5008;50.656;7.188;2024-03-08T10:23:32;11.10;99.90
9939;DHT22;5008;50.656;7.188;2024-03-08T10:26:10;11.20;99.90
9939;DHT22;5008;50.656;7.188;2024-03-08T10:28:38;11.30;99.90
9939;DHT22;5008;50.656;7.188;2024-03-08T10:31:05;11.30;99.90
9939;DHT22;5008;50.656;7.188;2024-03-08T10:33:32;11.40;99.90
9939;DHT22;5008;50.656;7.188;2024-03-08T10:35:59;11.50;99.90
9939;DHT22;5008;50.656;7.188;2024-03-08T10:38:32;11.60;99.90
9939;DHT22;5008;50.656;7.188;2024-03-08T10:41:00;11.50;99.90
9939;DHT22;5008;50.656;7.188;2024-03-08T10:43:28;11.40;99.90
9939;DHT22;5008;50.656;7.188;2024-03-08T10:46:10;11.50;99.90
9939;DHT22;5008;50.656;7.188;2024-03-08T10:48:43;11.60;99.90
9939;DHT22;5008;50.656;7.188;2024-03-08T10:51:11;12.10;99.90
9939;DHT22;5008;50.656;7.188;2024-03-08T10:53:40;12.20;99.90
9939;DHT22;5008;50.656;7.188;2024-03-08T10:56:08;12.30;99.90
9939;DHT22;5008;50.656;7.188;2024-03-08T10:58:36;12.50;99.90
9939;DHT22;5008;50.656;7.188;2024-03-08T11:01:04;12.50;99.90
9939;DHT22;5008;50.656;7.188;2024-03-08T11:03:44;12.50;99.90
9939;DHT22;5008;50.656;7.188;2024-03-08T11:06:15;12.60;99.90
9939;DHT22;5008;50.656;7.188;2024-03-08T11:08:46;12.40;99.90
9939;DHT22;5008;50.656;7.188;2024-03-08T11:11:26;12.30;99.90
9939;DHT22;5008;50.656;7.188;2024-03-08T11:14:00;12.30;99.90
9939;DHT22;5008;50.656;7.188;2024-03-08T11:16:41;12.30;99.90
9939;DHT22;5008;50.656;7.188;2024-03-08T11:19:26;12.40;99.90
9939;DHT22;5008;50.656;7.188;2024-03-08T11:21:58;12.70;99.90
9939;DHT22;5008;50.656;7.188;2024-03-08T11:24:26;12.60;99.90
9939;DHT22;5008;50.656;7.188;2024-03-08T11:26:57;12.60;99.90
9939;DHT22;5008;50.656;7.188;2024-03-08T11:29:36;12.60;99.90
9939;DHT22;5008;50.656;7.188;2024-03-08T11:32:07;12.70;99.90
9939;DHT22;5008;50.656;7.188;2024-03-08T11:34:35;12.70;99.90
9939;DHT22;5008;50.656;7.188;2024-03-08T11:37:04;12.90;99.90
9939;DHT22;5008;50.656;7.188;2024-03-08T11:39:32;13.10;99.90
9939;DHT22;5008;50.656;7.188;2024-03-08T11:41:59;13.00;99.90
9939;DHT22;5008;50.656;7.188;2024-03-08T11:44:27;12.90;99.90
9939;DHT22;5008;50.656;7.188;2024-03-08T11:46:54;13.10;99.90
9939;DHT22;5008;50.656;7.188;2024-03-08T11:49:21;13.10;99.90
9939;DHT22;5008;50.656;7.188;2024-03-08T11:51:51;13.10;99.90
9939;DHT22;5008;50.656;7.188;2024-03-08T11:54:18;13.20;99.90
9939;DHT22;5008;50.656;7.188;2024-03-08T11:56:47;13.50;99.90
9939;DHT22;5008;50.656;7.188;2024-03-08T11:59:14;13.50;99.90
9939;DHT22;5008;50.656;7.188;2024-03-08T12:01:43;13.70;99.90
9939;DHT22;5008;50.656;7.188;2024-03-08T12:04:12;13.90;99.90
9939;DHT22;5008;50.656;7.188;2024-03-08T12:06:40;14.10;99.90
9939;DHT22;5008;50.656;7.188;2024-03-08T12:09:08;14.30;99.90
9939;DHT22;5008;50.656;7.188;2024-03-08T12:11:36;14.30;99.90
9939;DHT22;5008;50.656;7.188;2024-03-08T12:14:04;14.40;99.90
9939;DHT22;5008;50.656;7.188;2024-03-08T12:16:32;14.40;99.90
9939;DHT22;5008;50.656;7.188;2024-03-08T12:18:59;14.40;99.90
9939;DHT22;5008;50.656;7.188;2024-03-08T12:21:31;14.60;99.90
9939;DHT22;5008;50.656;7.188;2024-03-08T12:24:05;14.90;99.90
9939;DHT22;5008;50.656;7.188;2024-03-08T12:26:35;15.10;99.70
9939;DHT22;5008;50.656;7.188;2024-03-08T12:29:17;15.20;98.10
9939;DHT22;5008;50.656;7.188;2024-03-08T12:31:46;15.10;99.40
9939;DHT22;5008;50.656;7.188;2024-03-08T12:34:13;15.00;99.90
9939;DHT22;5008;50.656;7.188;2024-03-08T12:36:45;15.20;99.90
9939;DHT22;5008;50.656;7.188;2024-03-08T12:39:15;15.60;99.90
9939;DHT22;5008;50.656;7.188;2024-03-08T12:41:43;15.70;99.40
9939;DHT22;5008;50.656;7.188;2024-03-08T12:44:10;15.40;99.90
9939;DHT22;5008;50.656;7.188;2024-03-08T12:46:39;15.20;99.90
9939;DHT22;5008;50.656;7.188;2024-03-08T12:49:08;15.20;99.90
9939;DHT22;5008;50.656;7.188;2024-03-08T12:51:36;15.70;99.90
9939;DHT22;5008;50.656;7.188;2024-03-08T12:54:04;15.90;99.90
9939;DHT22;5008;50.656;7.188;2024-03-08T12:56:34;15.60;99.90
9939;DHT22;5008;50.656;7.188;2024-03-08T12:59:03;15.30;99.70
9939;DHT22;5008;50.656;7.188;2024-03-08T13:01:30;15.70;99.20
9939;DHT22;5008;50.656;7.188;2024-03-08T13:03:59;16.80;99.10
9939;DHT22;5008;50.656;7.188;2024-03-08T13:06:27;18.00;96.90
9939;DHT22;5008;50.656;7.188;2024-03-08T13:08:54;18.80;97.60
9939;DHT22;5008;50.656;7.188;2024-03-08T13:11:21;19.50;96.60
9939;DHT22;5008;50.656;7.188;2024-03-08T13:13:49;19.80;95.40
9939;DHT22;5008;50.656;7.188;2024-03-08T13:16:15;19.60;96.10
9939;DHT22;5008;50.656;7.188;2024-03-08T13:18:46;18.50;95.50
9939;DHT22;5008;50.656;7.188;2024-03-08T13:21:15;17.90;97.00
9939;DHT22;5008;50.656;7.188;2024-03-08T13:23:45;18.00;97.60
9939;DHT22;5008;50.656;7.188;2024-03-08T13:26:15;17.70;96.70
9939;DHT22;5008;50.656;7.188;2024-03-08T13:28:43;18.20;97.40
9939;DHT22;5008;50.656;7.188;2024-03-08T13:31:09;19.20;96.60
9939;DHT22;5008;50.656;7.188;2024-03-08T13:33:36;19.50;96.20
9939;DHT22;5008;50.656;7.188;2024-03-08T13:36:05;19.30;96.10
9939;DHT22;5008;50.656;7.188;2024-03-08T13:38:44;19.00;95.60
9939;DHT22;5008;50.656;7.188;2024-03-08T13:41:12;19.60;95.20
9939;DHT22;5008;50.656;7.188;2024-03-08T13:43:40;19.80;94.60
9939;DHT22;5008;50.656;7.188;2024-03-08T13:46:07;19.40;95.40
9939;DHT22;5008;50.656;7.188;2024-03-08T13:48:35;18.60;95.90
9939;DHT22;5008;50.656;7.188;2024-03-08T13:51:04;18.50;95.40
9939;DHT22;5008;50.656;7.188;2024-03-08T13:53:31;18.80;94.80
9939;DHT22;5008;50.656;7.188;2024-03-08T13:55:59;18.80;95.60
9939;DHT22;5008;50.656;7.188;2024-03-08T13:58:26;18.40;96.60
9939;DHT22;5008;50.656;7.188;2024-03-08T14:00:53;18.70;95.20
9939;DHT22;5008;50.656;7.188;2024-03-08T14:03:20;19.50;95.60
9939;DHT22;5008;50.656;7.188;2024-03-08T14:05:49;20.20;92.70
9939;DHT22;5008;50.656;7.188;2024-03-08T14:08:15;21.20;93.40
9939;DHT22;5008;50.656;7.188;2024-03-08T14:10:43;21.40;93.50
9939;DHT22;5008;50.656;7.188;2024-03-08T14:13:13;21.00;93.60
9939;DHT22;5008;50.656;7.188;2024-03-08T14:15:41;21.20;90.50
9939;DHT22;5008;50.656;7.188;2024-03-08T14:18:10;21.60;93.40
9939;DHT22;5008;50.656;7.188;2024-03-08T14:20:38;22.10;91.40
9939;DHT22;5008;50.656;7.188;2024-03-08T14:23:05;22.60;90.20
9939;DHT22;5008;50.656;7.188;2024-03-08T14:25:33;22.40;91.90
9939;DHT22;5008;50.656;7.188;2024-03-08T14:28:00;23.20;91.20
9939;DHT22;5008;50.656;7.188;2024-03-08T14:30:31;22.60;92.30
9939;DHT22;5008;50.656;7.188;2024-03-08T14:33:04;22.70;91.10
9939;DHT22;5008;50.656;7.188;2024-03-08T14:35:34;22.70;90.30
9939;DHT22;5008;50.656;7.188;2024-03-08T14:38:01;23.50;88.20
9939;DHT22;5008;50.656;7.188;2024-03-08T14:40:28;24.00;90.30
9939;DHT22;5008;50.656;7.188;2024-03-08T14:42:56;24.50;88.00
9939;DHT22;5008;50.656;7.188;2024-03-08T14:45:23;24.30;88.80
9939;DHT22;5008;50.656;7.188;2024-03-08T14:47:53;24.40;86.20
9939;DHT22;5008;50.656;7.188;2024-03-08T14:50:21;24.80;86.00
9939;DHT22;5008;50.656;7.188;2024-03-08T14:52:49;24.60;84.20
9939;DHT22;5008;50.656;7.188;2024-03-08T14:55:17;24.60;84.00
9939;DHT22;5008;50.656;7.188;2024-03-08T14:57:45;25.10;86.60
9939;DHT22;5008;50.656;7.188;2024-03-08T15:00:13;25.00;85.90
9939;DHT22;5008;50.656;7.188;2024-03-08T15:02:43;24.20;87.80
9939;DHT22;5008;50.656;7.188;2024-03-08T15:05:11;24.70;83.10
9939;DHT22;5008;50.656;7.188;2024-03-08T15:07:38;25.20;80.90
9939;DHT22;5008;50.656;7.188;2024-03-08T15:10:07;24.70;82.20
9939;DHT22;5008;50.656;7.188;2024-03-08T15:12:37;24.50;85.60
9939;DHT22;5008;50.656;7.188;2024-03-08T15:15:06;24.20;85.20
9939;DHT22;5008;50.656;7.188;2024-03-08T15:17:38;23.20;84.60
9939;DHT22;5008;50.656;7.188;2024-03-08T15:20:06;21.90;86.30
9939;DHT22;5008;50.656;7.188;2024-03-08T15:22:42;19.60;87.40
9939;DHT22;5008;50.656;7.188;2024-03-08T15:25:13;18.50;90.80
9939;DHT22;5008;50.656;7.188;2024-03-08T15:27:46;17.60;91.60
9939;DHT22;5008;50.656;7.188;2024-03-08T15:30:14;16.80;93.40
9939;DHT22;5008;50.656;7.188;2024-03-08T15:32:44;16.50;93.00
9939;DHT22;5008;50.656;7.188;2024-03-08T15:35:13;16.20;92.50
9939;DHT22;5008;50.656;7.188;2024-03-08T15:37:41;16.00;92.30
9939;DHT22;5008;50.656;7.188;2024-03-08T15:40:09;15.70;93.20
9939;DHT22;5008;50.656;7.188;2024-03-08T15:42:47;15.50;94.20
9939;DHT22;5008;50.656;7.188;2024-03-08T15:45:14;15.50;93.20
9939;DHT22;5008;50.656;7.188;2024-03-08T15:47:41;15.30;95.50
9939;DHT22;5008;50.656;7.188;2024-03-08T15:50:09;15.20;95.30
9939;DHT22;5008;50.656;7.188;2024-03-08T15:52:37;15.10;94.80
9939;DHT22;5008;50.656;7.188;2024-03-08T15:55:07;14.90;96.50
9939;DHT22;5008;50.656;7.188;2024-03-08T15:57:34;14.70;96.00
9939;DHT22;5008;50.656;7.188;2024-03-08T16:00:02;14.60;95.80
9939;DHT22;5008;50.656;7.188;2024-03-08T16:02:39;14.60;96.80
9939;DHT22;5008;50.656;7.188;2024-03-08T16:05:07;14.50;95.60
9939;DHT22;5008;50.656;7.188;2024-03-08T16:07:37;14.40;96.60
9939;DHT22;5008;50.656;7.188;2024-03-08T16:10:04;14.40;96.40
9939;DHT22;5008;50.656;7.188;2024-03-08T16:12:36;14.30;96.30
9939;DHT22;5008;50.656;7.188;2024-03-08T16:15:03;14.10;97.20
9939;DHT22;5008;50.656;7.188;2024-03-08T16:17:31;14.10;96.40
9939;DHT22;5008;50.656;7.188;2024-03-08T16:19:58;13.90;96.30
9939;DHT22;5008;50.656;7.188;2024-03-08T16:22:24;13.90;97.10
9939;DHT22;5008;50.656;7.188;2024-03-08T16:24:53;13.80;95.90
9939;DHT22;5008;50.656;7.188;2024-03-08T16:27:21;13.70;97.20
9939;DHT22;5008;50.656;7.188;2024-03-08T16:29:49;13.70;98.10
9939;DHT22;5008;50.656;7.188;2024-03-08T16:32:16;13.70;97.60
9939;DHT22;5008;50.656;7.188;2024-03-08T16:34:46;13.60;97.70
9939;DHT22;5008;50.656;7.188;2024-03-08T16:37:13;13.50;96.50
9939;DHT22;5008;50.656;7.188;2024-03-08T16:39:42;13.50;97.10
9939;DHT22;5008;50.656;7.188;2024-03-08T16:42:08;13.40;97.40
9939;DHT22;5008;50.656;7.188;2024-03-08T16:44:36;13.30;97.20
9939;DHT22;5008;50.656;7.188;2024-03-08T16:47:04;13.30;97.60
9939;DHT22;5008;50.656;7.188;2024-03-08T16:49:32;13.30;98.00
9939;DHT22;5008;50.656;7.188;2024-03-08T16:51:58;13.20;97.00
9939;DHT22;5008;50.656;7.188;2024-03-08T16:54:25;13.10;96.80
9939;DHT22;5008;50.656;7.188;2024-03-08T16:56:52;13.10;96.80
9939;DHT22;5008;50.656;7.188;2024-03-08T16:59:19;13.00;97.80
9939;DHT22;5008;50.656;7.188;2024-03-08T17:01:46;12.90;97.90
9939;DHT22;5008;50.656;7.188;2024-03-08T17:04:14;12.90;98.60
9939;DHT22;5008;50.656;7.188;2024-03-08T17:06:43;12.90;99.10
9939;DHT22;5008;50.656;7.188;2024-03-08T17:09:10;12.70;96.40
9939;DHT22;5008;50.656;7.188;2024-03-08T17:11:37;12.70;98.50
9939;DHT22;5008;50.656;7.188;2024-03-08T17:14:04;12.70;99.30
9939;DHT22;5008;50.656;7.188;2024-03-08T17:16:31;12.70;96.60
9939;DHT22;5008;50.656;7.188;2024-03-08T17:18:58;12.60;98.90
9939;DHT22;5008;50.656;7.188;2024-03-08T17:21:27;12.40;97.20
9939;DHT22;5008;50.656;7.188;2024-03-08T17:23:54;12.40;98.80
9939;DHT22;5008;50.656;7.188;2024-03-08T17:26:21;12.30;97.80
9939;DHT22;5008;50.656;7.188;2024-03-08T17:28:50;12.30;99.20
9939;DHT22;5008;50.656;7.188;2024-03-08T17:31:17;12.30;97.70
9939;DHT22;5008;50.656;7.188;2024-03-08T17:33:43;12.30;99.90
9939;DHT22;5008;50.656;7.188;2024-03-08T17:36:11;12.30;98.20
9939;DHT22;5008;50.656;7.188;2024-03-08T17:38:42;12.20;98.70
9939;DHT22;5008;50.656;7.188;2024-03-08T17:41:11;12.10;99.80
9939;DHT22;5008;50.656;7.188;2024-03-08T17:43:38;12.10;99.00
9939;DHT22;5008;50.656;7.188;2024-03-08T17:46:06;12.00;98.90
9939;DHT22;5008;50.656;7.188;2024-03-08T17:48:33;12.00;99.60
9939;DHT22;5008;50.656;7.188;2024-03-08T17:51:00;12.00;99.90
9939;DHT22;5008;50.656;7.188;2024-03-08T17:53:27;12.00;99.90
9939;DHT22;5008;50.656;7.188;2024-03-08T17:55:57;11.90;99.90
9939;DHT22;5008;50.656;7.188;2024-03-08T17:58:24;11.80;99.80
9939;DHT22;5008;50.656;7.188;2024-03-08T18:00:51;11.80;98.80
9939;DHT22;5008;50.656;7.188;2024-03-08T18:03:19;11.60;98.60
9939;DHT22;5008;50.656;7.188;2024-03-08T18:05:52;11.60;99.00
9939;DHT22;5008;50.656;7.188;2024-03-08T18:08:18;11.50;99.90
9939;DHT22;5008;50.656;7.188;2024-03-08T18:10:45;11.40;99.90
9939;DHT22;5008;50.656;7.188;2024-03-08T18:13:15;11.30;99.70
9939;DHT22;5008;50.656;7.188;2024-03-08T18:15:42;11.30;99.80
9939;DHT22;5008;50.656;7.188;2024-03-08T18:18:11;11.20;99.30
9939;DHT22;5008;50.656;7.188;2024-03-08T18:20:38;11.00;99.60
9939;DHT22;5008;50.656;7.188;2024-03-08T18:23:12;10.90;99.90
9939;DHT22;5008;50.656;7.188;2024-03-08T18:25:39;10.80;99.90
9939;DHT22;5008;50.656;7.188;2024-03-08T18:28:07;10.70;99.70
9939;DHT22;5008;50.656;7.188;2024-03-08T18:30:37;10.60;99.90
9939;DHT22;5008;50.656;7.188;2024-03-08T18:33:04;10.60;99.90
9939;DHT22;5008;50.656;7.188;2024-03-08T18:35:32;10.50;99.90
9939;DHT22;5008;50.656;7.188;2024-03-08T18:37:59;10.40;99.90
9939;DHT22;5008;50.656;7.188;2024-03-08T18:40:27;10.40;98.90
9939;DHT22;5008;50.656;7.188;2024-03-08T18:42:54;10.20;99.90
9939;DHT22;5008;50.656;7.188;2024-03-08T18:45:22;10.10;99.90
9939;DHT22;5008;50.656;7.188;2024-03-08T18:47:52;10.00;99.90
9939;DHT22;5008;50.656;7.188;2024-03-08T18:50:22;10.00;99.90
9939;DHT22;5008;50.656;7.188;2024-03-08T18:52:51;9.90;99.90
9939;DHT22;5008;50.656;7.188;2024-03-08T18:55:19;9.70;99.90
9939;DHT22;5008;50.656;7.188;2024-03-08T18:57:49;9.60;99.90
9939;DHT22;5008;50.656;7.188;2024-03-08T19:00:19;9.60;99.90
9939;DHT22;5008;50.656;7.188;2024-03-08T19:02:55;9.40;99.90
9939;DHT22;5008;50.656;7.188;2024-03-08T19:05:23;9.30;99.90
9939;DHT22;5008;50.656;7.188;2024-03-08T19:07:51;9.40;99.90
9939;DHT22;5008;50.656;7.188;2024-03-08T19:10:20;9.40;99.90
9939;DHT22;5008;50.656;7.188;2024-03-08T19:12:47;9.40;99.90
9939;DHT22;5008;50.656;7.188;2024-03-08T19:15:15;9.50;99.90
9939;DHT22;5008;50.656;7.188;2024-03-08T19:17:43;9.50;99.90
9939;DHT22;5008;50.656;7.188;2024-03-08T19:20:12;9.50;99.90
9939;DHT22;5008;50.656;7.188;2024-03-08T19:22:42;9.50;99.90
9939;DHT22;5008;50.656;7.188;2024-03-08T19:25:09;9.60;99.90
9939;DHT22;5008;50.656;7.188;2024-03-08T19:27:36;9.60;99.90
9939;DHT22;5008;50.656;7.188;2024-03-08T19:30:04;9.50;99.90
9939;DHT22;5008;50.656;7.188;2024-03-08T19:32:31;9.50;99.90
9939;DHT22;5008;50.656;7.188;2024-03-08T19:34:59;9.50;99.90
9939;DHT22;5008;50.656;7.188;2024-03-08T19:37:27;9.50;99.90
9939;DHT22;5008;50.656;7.188;2024-03-08T19:39:54;9.40;99.90
9939;DHT22;5008;50.656;7.188;2024-03-08T19:42:21;9.10;99.90
9939;DHT22;5008;50.656;7.188;2024-03-08T19:44:50;9.00;99.90
9939;DHT22;5008;50.656;7.188;2024-03-08T19:47:17;8.90;99.90
9939;DHT22;5008;50.656;7.188;2024-03-08T19:49:44;8.80;99.90
9939;DHT22;5008;50.656;7.188;2024-03-08T19:52:10;8.70;99.90
9939;DHT22;5008;50.656;7.188;2024-03-08T19:54:38;8.60;99.90
9939;DHT22;5008;50.656;7.188;2024-03-08T19:57:05;8.50;99.90
9939;DHT22;5008;50.656;7.188;2024-03-08T19:59:33;8.60;99.90
9939;DHT22;5008;50.656;7.188;2024-03-08T20:02:07;8.50;99.90
9939;DHT22;5008;50.656;7.188;2024-03-08T20:04:33;8.50;99.90
9939;DHT22;5008;50.656;7.188;2024-03-08T20:07:01;8.50;99.90
9939;DHT22;5008;50.656;7.188;2024-03-08T20:09:27;8.60;99.90
9939;DHT22;5008;50.656;7.188;2024-03-08T20:11:56;8.50;99.90
9939;DHT22;5008;50.656;7.188;2024-03-08T20:14:23;8.60;99.90
9939;DHT22;5008;50.656;7.188;2024-03-08T20:16:51;8.50;99.90
9939;DHT22;5008;50.656;7.188;2024-03-08T20:19:18;8.50;99.90
9939;DHT22;5008;50.656;7.188;2024-03-08T20:21:47;8.40;99.90
9939;DHT22;5008;50.656;7.188;2024-03-08T20:24:15;8.30;99.90
9939;DHT22;5008;50.656;7.188;2024-03-08T20:26:42;8.40;99.90
9939;DHT22;5008;50.656;7.188;2024-03-08T20:29:12;8.50;99.90
9939;DHT22;5008;50.656;7.188;2024-03-08T20:31:40;8.80;99.90
9939;DHT22;5008;50.656;7.188;2024-03-08T20:34:07;9.00;99.90
9939;DHT22;5008;50.656;7.188;2024-03-08T20:36:35;9.00;99.90
9939;DHT22;5008;50.656;7.188;2024-03-08T20:39:02;9.20;99.90
9939;DHT22;5008;50.656;7.188;2024-03-08T20:41:30;9.30;99.90
9939;DHT22;5008;50.656;7.188;2024-03-08T20:43:57;9.50;99.90
9939;DHT22;5008;50.656;7.188;2024-03-08T20:46:25;9.70;99.90
9939;DHT22;5008;50.656;7.188;2024-03-08T20:48:52;9.70;99.90
9939;DHT22;5008;50.656;7.188;2024-03-08T20:51:19;9.60;99.90
9939;DHT22;5008;50.656;7.188;2024-03-08T20:53:46;9.60;99.90
9939;DHT22;5008;50.656;7.188;2024-03-08T20:56:13;9.70;99.90
9939;DHT22;5008;50.656;7.188;2024-03-08T20:58:41;9.50;99.90
9939;DHT22;5008;50.656;7.188;2024-03-08T21:01:09;9.50;99.90
9939;DHT22;5008;50.656;7.188;2024-03-08T21:03:37;9.50;99.90
9939;DHT22;5008;50.656;7.188;2024-03-08T21:06:04;9.40;99.90
9939;DHT22;5008;50.656;7.188;2024-03-08T21:08:33;9.70;99.90
9939;DHT22;5008;50.656;7.188;2024-03-08T21:11:00;9.80;99.90
9939;DHT22;5008;50.656;7.188;2024-03-08T21:13:26;9.70;99.90
9939;DHT22;5008;50.656;7.188;2024-03-08T21:15:53;9.70;99.90